Time;durP1;ratioP1;P1;durP2;ratioP2;P2;SDS_P1;SDS_P2;PMS_P1;PMS_P2;Temp;Humidity;BMP_temperature;BMP_pressure;BME280_temperature;BME280_humidity;BME280_pressure;Samples;Min_cycle;Max_cycle;Signal;HPM_P1;HPM_P2
2021/11/03 00:04:56;;;;;;;16.50;14.60;;;;;;;6.58;82.57;98247.29;460790;1178;140897;-65
2021/11/03 00:15:02;;;;;;;18.20;14.90;;;;;;;6.58;82.74;98250.95;466495;1191;141544;-62
2021/11/03 00:25:09;;;;;;;16.00;13.70;;;;;;;6.58;82.91;98255.60;470234;1191;141655;-64
2021/11/03 00:35:16;;;;;;;17.70;15.80;;;;;;;6.63;82.98;98265.05;477176;1190;140575;-61
2021/11/03 00:45:22;;;;;;;16.90;14.00;;;;;;;6.71;83.03;98263.98;476366;1191;141314;-61
2021/11/03 00:55:29;;;;;;;17.10;14.40;;;;;;;6.75;82.97;98266.95;477049;1191;141767;-62
2021/11/03 01:05:38;;;;;;;19.10;15.30;;;;;;;6.81;82.95;98271.45;467642;1190;140863;-62
2021/11/03 01:15:44;;;;;;;18.20;15.40;;;;;;;6.79;82.82;98274.91;471753;1189;141494;-61
2021/11/03 01:25:51;;;;;;;18.10;15.40;;;;;;;6.76;82.81;98276.34;461798;1190;141411;-60
2021/11/03 01:35:57;;;;;;;20.10;16.10;;;;;;;6.74;82.97;98278.41;461298;1190;147343;-59
2021/11/03 01:46:26;;;;;;;18.70;15.60;;;;;;;6.69;83.06;98287.40;461971;1190;141113;-60
2021/11/03 01:56:33;;;;;;;20.80;16.90;;;;;;;6.67;83.07;98290.14;465335;1189;141010;-61
2021/11/03 02:06:41;;;;;;;20.70;15.90;;;;;;;6.62;83.02;98285.63;461560;1190;141907;-61
2021/11/03 02:16:52;;;;;;;18.50;15.10;;;;;;;6.60;83.25;98292.69;461061;1189;141913;-66
2021/11/03 02:27:01;;;;;;;18.30;16.30;;;;;;;6.62;83.21;98290.85;471537;1189;144404;-62
2021/11/03 02:37:40;;;;;;;17.90;15.40;;;;;;;6.62;83.07;98292.06;466818;1189;143060;-61
2021/11/03 02:47:46;;;;;;;21.50;17.60;;;;;;;6.63;83.13;98293.70;477061;1189;143589;-62
2021/11/03 02:57:52;;;;;;;19.50;15.40;;;;;;;6.66;83.06;98299.59;475715;1189;141366;-60
2021/11/03 03:07:58;;;;;;;19.80;15.00;;;;;;;6.58;82.84;98302.23;460763;1190;140778;-58
2021/11/03 03:18:04;;;;;;;19.90;14.50;;;;;;;6.48;82.92;98304.10;465930;1189;141142;-60
2021/11/03 03:28:14;;;;;;;18.70;14.80;;;;;;;6.42;82.92;98303.99;472604;1189;142020;-62
2021/11/03 03:38:20;;;;;;;20.30;16.50;;;;;;;6.38;82.79;98304.45;461438;1189;141499;-59
2021/11/03 03:48:26;;;;;;;19.30;15.60;;;;;;;6.29;82.72;98315.29;475711;1190;141793;-65
2021/11/03 03:58:33;;;;;;;19.40;14.50;;;;;;;6.22;82.71;98315.23;473248;1189;141008;-61
2021/11/03 04:08:39;;;;;;;18.30;13.60;;;;;;;6.05;82.46;98319.92;477040;1189;141345;-61
2021/11/03 04:18:46;;;;;;;17.40;14.30;;;;;;;6.00;82.78;98324.79;468114;1189;141745;-58
2021/11/03 04:28:53;;;;;;;16.30;13.10;;;;;;;6.07;82.72;98335.36;460641;1190;141458;-59
2021/11/03 04:39:02;;;;;;;15.60;11.80;;;;;;;6.09;82.61;98329.11;472122;1190;141072;-60
2021/11/03 04:49:06;;;;;;;;;;;;;;;6.08;82.58;98342.20;460562;1190;140926;-59
2021/11/03 04:59:13;;;;;;;15.20;11.10;;;;;;;5.91;82.57;98357.81;465790;1190;126822;-63
2021/11/03 05:09:20;;;;;;;12.80;10.60;;;;;;;5.73;82.50;98363.83;476902;1189;141403;-62
2021/11/03 05:19:29;;;;;;;15.00;10.50;;;;;;;5.37;82.54;98367.66;471990;1190;141163;-59
2021/11/03 05:29:35;;;;;;;15.10;11.70;;;;;;;5.20;83.05;98375.12;459951;1190;141087;-61
2021/11/03 05:39:42;;;;;;;19.50;13.90;;;;;;;5.13;83.12;98392.00;460287;1184;141500;-59
2021/11/03 05:49:48;;;;;;;17.80;14.20;;;;;;;5.06;83.11;98405.77;475037;1189;141160;-61
2021/11/03 05:59:55;;;;;;;21.70;15.60;;;;;;;4.91;83.12;98416.91;460248;1189;141739;-60
2021/11/03 06:10:08;;;;;;;24.20;17.40;;;;;;;4.82;83.59;98433.41;463131;1192;141963;-60
2021/11/03 06:20:14;;;;;;;23.10;17.20;;;;;;;5.02;83.60;98454.91;477594;1190;140440;-61
2021/11/03 06:30:27;;;;;;;28.00;18.90;;;;;;;5.43;83.36;98467.06;476911;1189;143636;-61
2021/11/03 06:40:35;;;;;;;26.70;19.70;;;;;;;5.93;82.81;98477.27;477655;1189;143157;-62
2021/11/03 06:50:42;;;;;;;17.90;16.00;;;;;;;7.39;82.28;98489.63;476811;1189;141354;-61
2021/11/03 07:00:50;;;;;;;18.90;15.20;;;;;;;10.49;78.68;98493.25;477445;1191;141068;-63
2021/11/03 07:10:59;;;;;;;15.70;14.10;;;;;;;12.29;75.14;98496.10;467099;1189;142793;-61
2021/11/03 07:21:03;;;;;;;;;;;;;;;15.45;70.91;98504.76;460265;1190;142514;-62
2021/11/03 07:31:10;;;;;;;13.00;11.80;;;;;;;18.13;66.20;98501.27;461160;1175;127877;-62
2021/11/03 07:41:16;;;;;;;12.40;11.10;;;;;;;19.93;61.45;98496.23;463163;1190;142503;-61
2021/11/03 07:51:24;;;;;;;12.90;11.00;;;;;;;21.17;57.81;98499.56;459897;1190;143700;-62
2021/11/03 08:01:30;;;;;;;11.20;10.10;;;;;;;22.93;55.03;98507.39;477803;1189;141060;-63
2021/11/03 08:11:46;;;;;;;12.60;11.50;;;;;;;24.34;51.12;98505.81;469843;1189;143020;-61
2021/11/03 08:21:52;;;;;;;12.60;11.50;;;;;;;25.54;48.19;98520.02;470642;1187;194857;-62
2021/11/03 08:31:59;;;;;;;13.60;12.30;;;;;;;26.11;45.35;98526.92;461028;1190;141593;-59
2021/11/03 08:42:06;;;;;;;12.40;11.20;;;;;;;25.39;43.48;98528.01;460320;1190;141703;-61
2021/11/03 08:52:13;;;;;;;11.20;10.20;;;;;;;25.61;42.15;98533.20;462188;1190;144614;-61
2021/11/03 09:02:19;;;;;;;11.10;10.10;;;;;;;26.03;41.29;98543.37;461104;1190;141886;-64
2021/11/03 09:12:25;;;;;;;11.80;10.80;;;;;;;25.96;40.06;98566.14;476986;1189;141083;-62
2021/11/03 09:22:34;;;;;;;11.70;10.60;;;;;;;24.09;40.03;98571.50;461730;1189;10002970;-64
2021/11/03 09:32:48;;;;;;;10.60;9.60;;;;;;;19.88;42.53;98577.91;462215;1189;142197;-64
2021/11/03 09:42:56;;;;;;;12.90;10.00;;;;;;;16.58;46.07;98582.38;470834;1190;141861;-63
2021/11/03 09:53:05;;;;;;;11.80;10.40;;;;;;;14.73;48.90;98590.38;461209;1190;141354;-63
2021/11/03 10:03:27;;;;;;;12.60;9.40;;;;;;;13.61;51.22;98588.38;460968;1190;191719;-61
2021/11/03 10:13:36;;;;;;;11.10;8.40;;;;;;;12.73;52.80;98590.09;466078;1177;141735;-63
2021/11/03 10:23:53;;;;;;;8.90;8.00;;;;;;;12.02;54.70;98589.38;474570;1189;140609;-61
2021/11/03 10:34:04;;;;;;;10.10;8.80;;;;;;;12.02;55.57;98594.82;460749;1192;143015;-63
2021/11/03 10:44:21;;;;;;;9.60;7.60;;;;;;;12.37;55.96;98597.80;460722;1190;143422;-65
2021/11/03 10:54:43;;;;;;;8.20;6.90;;;;;;;12.46;55.49;98597.36;462583;1190;141497;-63
2021/11/03 11:04:51;;;;;;;16.20;8.00;;;;;;;12.66;55.59;98603.36;470665;1190;141452;-62
2021/11/03 11:14:59;;;;;;;15.90;8.50;;;;;;;12.69;55.71;98604.36;477147;1189;141591;-63
2021/11/03 11:25:13;;;;;;;13.90;9.20;;;;;;;12.40;55.90;98607.40;465169;1190;140887;-64
2021/11/03 11:35:27;;;;;;;11.40;8.30;;;;;;;12.11;56.27;98597.89;466567;1190;141201;-65
2021/11/03 11:45:36;;;;;;;8.30;7.30;;;;;;;11.87;56.99;98589.98;472508;1189;140154;-63
2021/11/03 11:55:42;;;;;;;5.90;5.30;;;;;;;11.68;56.75;98574.69;468017;1189;141843;-65
2021/11/03 12:05:55;;;;;;;8.30;6.50;;;;;;;11.47;56.79;98570.02;464004;1177;140811;-65
2021/11/03 12:16:16;;;;;;;7.20;5.40;;;;;;;11.25;57.17;98563.03;460870;1189;141251;-59
2021/11/03 12:26:40;;;;;;;8.10;5.90;;;;;;;11.11;57.34;98566.63;477860;1189;141479;-62
2021/11/03 12:37:02;;;;;;;6.60;5.60;;;;;;;10.96;57.60;98568.75;477938;1189;141579;-61
2021/11/03 12:47:19;;;;;;;6.40;5.40;;;;;;;10.87;57.59;98581.02;477754;1190;140693;-60
2021/11/03 12:57:27;;;;;;;8.80;5.10;;;;;;;10.78;57.83;98583.16;475696;1190;140872;-58
2021/11/03 13:07:38;;;;;;;16.10;5.90;;;;;;;10.71;58.00;98582.16;477834;1190;142018;-64
2021/11/03 13:17:51;;;;;;;8.80;5.30;;;;;;;10.68;58.27;98586.20;461486;1189;143391;-67
2021/11/03 13:27:57;;;;;;;7.50;4.00;;;;;;;10.65;58.07;98594.30;465203;1190;143193;-66
2021/11/03 13:38:21;;;;;;;6.90;3.40;;;;;;;10.60;57.93;98593.85;477894;1189;141334;-62
2021/11/03 13:48:40;;;;;;;3.90;2.90;;;;;;;10.52;58.08;98582.75;477943;1189;141206;-63
2021/11/03 13:58:45;;;;;;;;;;;;;;;10.46;58.09;98593.18;476764;1189;141166;-58
2021/11/03 14:08:52;;;;;;;3.50;2.80;;;;;;;10.32;58.05;98597.02;460654;1189;127077;-64
2021/11/03 14:19:03;;;;;;;6.70;3.40;;;;;;;10.13;58.32;98607.46;471933;1189;143909;-63
2021/11/03 14:29:09;;;;;;;6.50;4.20;;;;;;;9.87;58.89;98609.09;461313;1189;140641;-66
2021/11/03 14:39:20;;;;;;;4.80;3.80;;;;;;;9.56;59.50;98609.15;460635;1189;140799;-67
2021/11/03 14:49:40;;;;;;;4.90;3.90;;;;;;;9.24;60.17;98599.79;469408;1190;140280;-60
2021/11/03 14:59:46;;;;;;;6.60;3.80;;;;;;;8.99;60.99;98594.80;469065;1190;141433;-63
2021/11/03 15:09:58;;;;;;;8.00;6.10;;;;;;;8.79;61.54;98588.77;460740;1192;140788;-63
2021/11/03 15:20:19;;;;;;;11.50;6.70;;;;;;;8.63;62.47;98592.19;477913;1189;140875;-58
2021/11/03 15:30:25;;;;;;;7.80;7.00;;;;;;;8.52;63.23;98592.61;459425;1189;10002195;-59
2021/11/03 15:40:36;;;;;;;10.50;8.70;;;;;;;8.61;63.51;98595.13;472391;1190;141787;-61
2021/11/03 15:50:43;;;;;;;10.70;7.60;;;;;;;8.74;63.73;98600.84;461421;1189;141265;-59
2021/11/03 16:00:52;;;;;;;9.30;8.30;;;;;;;8.75;64.01;98608.77;460865;1190;141164;-60
2021/11/03 16:10:59;;;;;;;12.30;8.70;;;;;;;8.60;64.40;98607.73;472881;1190;140799;-59
2021/11/03 16:21:18;;;;;;;17.10;11.30;;;;;;;8.42;64.83;98614.67;467454;1189;141653;-61
2021/11/03 16:31:23;;;;;;;19.10;12.20;;;;;;;8.39;65.34;98619.80;464735;1190;142080;-64
2021/11/03 16:42:06;;;;;;;15.70;12.50;;;;;;;8.35;65.74;98628.33;468973;1189;164361;-59
2021/11/03 16:52:12;;;;;;;19.80;12.50;;;;;;;8.11;66.46;98625.57;471773;1190;140453;-59
2021/11/03 17:02:19;;;;;;;17.20;12.30;;;;;;;8.03;66.71;98629.46;461064;1189;141409;-60
2021/11/03 17:12:30;;;;;;;17.10;12.30;;;;;;;8.15;67.23;98622.84;462811;1189;142200;-62
2021/11/03 17:22:36;;;;;;;18.10;13.90;;;;;;;8.30;67.11;98619.23;463431;1189;140949;-59
2021/11/03 17:32:42;;;;;;;25.10;16.10;;;;;;;8.34;67.18;98623.30;466639;1189;141637;-64
2021/11/03 17:42:51;;;;;;;17.80;13.10;;;;;;;8.39;67.35;98622.58;471299;1189;142881;-64
2021/11/03 17:52:57;;;;;;;17.50;13.20;;;;;;;8.22;67.58;98612.07;477774;1189;141109;-64
2021/11/03 18:03:13;;;;;;;18.30;13.60;;;;;;;8.18;67.89;98618.85;476873;1189;141007;-64
2021/11/03 18:13:23;;;;;;;16.00;12.30;;;;;;;8.26;68.10;98631.02;477845;1190;141293;-63
2021/11/03 18:23:29;;;;;;;17.90;12.40;;;;;;;8.25;68.17;98622.67;471407;1189;142545;-63
2021/11/03 18:33:36;;;;;;;16.00;11.30;;;;;;;8.28;68.38;98602.24;467952;1189;141700;-63
2021/11/03 18:43:42;;;;;;;13.30;10.70;;;;;;;8.30;68.43;98586.29;474850;1189;141681;-64
2021/11/03 18:53:50;;;;;;;15.60;11.20;;;;;;;8.26;68.46;98588.94;473688;1190;142809;-64
2021/11/03 19:03:58;;;;;;;13.80;10.90;;;;;;;8.20;68.58;98591.15;468661;1189;141094;-62
2021/11/03 19:14:04;;;;;;;13.50;10.20;;;;;;;8.07;68.99;98589.42;461261;1189;140934;-62
2021/11/03 19:24:32;;;;;;;13.20;10.30;;;;;;;8.00;69.25;98600.19;453669;1190;10002670;-61
2021/11/03 19:34:38;;;;;;;13.80;10.30;;;;;;;7.97;69.54;98609.80;468238;1176;182722;-60
2021/11/03 19:44:46;;;;;;;15.80;11.30;;;;;;;7.95;69.75;98617.05;469122;1190;142416;-60
2021/11/03 19:54:54;;;;;;;11.60;9.30;;;;;;;7.96;69.83;98632.35;462502;1177;143515;-62
2021/11/03 20:05:00;;;;;;;13.10;9.60;;;;;;;7.96;70.13;98625.76;467956;1188;141612;-62
2021/11/03 20:15:07;;;;;;;13.70;9.50;;;;;;;7.86;70.47;98624.88;461086;1190;141178;-61
2021/11/03 20:25:18;;;;;;;15.40;11.60;;;;;;;7.78;70.74;98611.80;475214;1190;142660;-64
2021/11/03 20:35:36;;;;;;;13.00;10.10;;;;;;;7.77;70.68;98600.72;475059;1190;142125;-62
2021/11/03 20:45:43;;;;;;;12.90;10.30;;;;;;;7.77;70.73;98596.89;473382;1190;142834;-60
2021/11/03 20:55:52;;;;;;;14.20;10.40;;;;;;;7.76;70.96;98585.13;468603;1189;142971;-60
2021/11/03 21:05:58;;;;;;;11.70;8.50;;;;;;;7.73;71.06;98587.21;467885;1189;141543;-59
2021/11/03 21:16:04;;;;;;;11.90;9.40;;;;;;;7.70;71.06;98604.44;474907;1189;141472;-55
2021/11/03 21:26:11;;;;;;;13.30;9.10;;;;;;;7.73;71.17;98613.67;475233;1190;142305;-63
2021/11/03 21:36:16;;;;;;;11.20;8.50;;;;;;;7.75;71.23;98607.50;476646;1190;142769;-62
2021/11/03 21:46:23;;;;;;;12.90;10.50;;;;;;;7.76;71.11;98612.98;473918;1191;140894;-56
2021/11/03 21:56:31;;;;;;;10.30;7.80;;;;;;;7.80;71.11;98610.27;464980;1189;145579;-58
2021/11/03 22:06:37;;;;;;;13.90;10.00;;;;;;;7.79;70.92;98602.29;462007;1189;141411;-59
2021/11/03 22:16:44;;;;;;;10.70;9.20;;;;;;;7.76;70.84;98598.17;461829;1190;140838;-57
2021/11/03 22:26:51;;;;;;;12.50;9.90;;;;;;;7.72;70.88;98592.48;460337;1184;141193;-57
2021/11/03 22:36:58;;;;;;;10.20;9.20;;;;;;;7.67;71.00;98593.36;461327;1190;140690;-60
2021/11/03 22:47:04;;;;;;;11.70;10.30;;;;;;;7.64;70.95;98592.52;465547;1189;140832;-61
2021/11/03 22:57:10;;;;;;;16.40;11.20;;;;;;;7.63;71.00;98602.56;476997;1189;141494;-62
2021/11/03 23:07:16;;;;;;;14.00;11.00;;;;;;;7.62;71.00;98596.66;477853;1189;143155;-62
2021/11/03 23:17:22;;;;;;;10.50;9.30;;;;;;;7.63;70.95;98601.46;477826;1189;141336;-60
2021/11/03 23:27:28;;;;;;;14.60;10.80;;;;;;;7.64;70.85;98586.61;462354;1190;142707;-61
2021/11/03 23:37:35;;;;;;;12.20;10.70;;;;;;;7.61;70.81;98581.73;467913;1190;140960;-61
2021/11/03 23:47:42;;;;;;;12.60;8.80;;;;;;;7.60;71.06;98583.20;472599;1190;141732;-58
2021/11/03 23:57:49;;;;;;;11.90;9.30;;;;;;;7.57;71.08;98589.50;477017;1189;141547;-57
